createdAt,value
2018-07-25T00:01:42.424Z,99618.00
2018-07-25T00:04:12.667Z,99610.00
2018-07-25T00:06:41.847Z,99615.00
2018-07-25T00:09:11.911Z,99616.00
2018-07-25T00:11:41.048Z,99615.00
2018-07-25T00:14:10.482Z,99619.00
2018-07-25T00:16:40.881Z,99618.00
2018-07-25T00:19:10.150Z,99614.00
2018-07-25T00:21:39.376Z,99621.00
2018-07-25T00:24:08.885Z,99619.00
2018-07-25T00:26:38.104Z,99623.00
2018-07-25T00:29:07.424Z,99625.00
2018-07-25T00:31:36.624Z,99617.00
2018-07-25T00:34:05.908Z,99620.00
2018-07-25T00:36:35.033Z,99619.00
2018-07-25T00:39:08.258Z,99624.00
2018-07-25T00:41:37.573Z,99620.00
2018-07-25T00:44:06.807Z,99617.00
2018-07-25T00:46:38.967Z,99614.00
2018-07-25T00:49:08.931Z,99615.00
2018-07-25T00:51:38.021Z,99616.00
2018-07-25T00:54:14.637Z,99620.00
2018-07-25T00:56:43.739Z,99613.00
2018-07-25T00:59:13.485Z,99615.00
2018-07-25T01:01:44.354Z,99612.00
2018-07-25T01:04:16.848Z,99617.00
2018-07-25T01:06:46.984Z,99614.00
2018-07-25T01:09:18.692Z,99616.00
2018-07-25T01:11:56.963Z,99620.00
2018-07-25T01:14:27.696Z,99626.00
2018-07-25T01:16:56.814Z,99624.00
2018-07-25T01:19:28.865Z,99628.00
2018-07-25T01:21:57.945Z,99630.00
2018-07-25T01:24:27.043Z,99625.00
2018-07-25T01:26:58.142Z,99619.00
2018-07-25T01:29:29.491Z,99623.00
2018-07-25T01:32:00.706Z,99624.00
2018-07-25T01:34:29.845Z,99624.00
2018-07-25T01:36:59.038Z,99624.00
2018-07-25T01:39:28.132Z,99625.00
2018-07-25T01:42:07.464Z,99626.00
2018-07-25T01:44:39.442Z,99630.00
2018-07-25T01:47:08.703Z,99625.00
2018-07-25T01:49:37.897Z,99628.00
2018-07-25T01:52:07.506Z,99626.00
2018-07-25T01:54:36.728Z,99624.00
2018-07-25T01:57:06.492Z,99625.00
2018-07-25T01:59:35.678Z,99625.00
2018-07-25T02:02:04.793Z,99626.00
2018-07-25T02:04:33.909Z,99628.00
2018-07-25T02:07:05.050Z,99626.00
2018-07-25T02:09:34.135Z,99627.00
2018-07-25T02:12:03.162Z,99628.00
2018-07-25T02:14:32.226Z,99629.00
2018-07-25T02:17:01.317Z,99631.00
2018-07-25T02:19:30.381Z,99636.00
2018-07-25T02:21:59.448Z,99634.00
2018-07-25T02:24:32.165Z,99630.00
2018-07-25T02:27:01.583Z,99632.00
2018-07-25T02:29:30.775Z,99630.00
2018-07-25T02:31:59.881Z,99632.00
2018-07-25T02:34:28.974Z,99633.00
2018-07-25T02:36:58.100Z,99634.00
2018-07-25T02:39:27.244Z,99628.00
2018-07-25T02:41:56.312Z,99631.00
2018-07-25T02:44:28.025Z,99635.00
2018-07-25T02:47:06.018Z,99639.00
2018-07-25T02:49:38.472Z,99629.00
2018-07-25T02:52:08.374Z,99629.00
2018-07-25T02:54:39.610Z,99640.00
2018-07-25T02:57:09.618Z,99637.00
2018-07-25T02:59:38.940Z,99642.00
2018-07-25T03:02:10.595Z,99644.00
2018-07-25T03:04:41.572Z,99643.00
2018-07-25T03:07:13.029Z,99650.00
2018-07-25T03:09:42.572Z,99648.00
2018-07-25T03:12:13.397Z,99650.00
2018-07-25T03:14:44.985Z,99645.00
2018-07-25T03:17:14.143Z,99640.00
2018-07-25T03:19:44.174Z,99641.00
2018-07-25T03:22:17.562Z,99646.00
2018-07-25T03:24:46.928Z,99641.00
2018-07-25T03:27:17.545Z,99642.00
2018-07-25T03:29:48.209Z,99648.00
2018-07-25T03:32:20.611Z,99644.00
2018-07-25T03:34:50.216Z,99645.00
2018-07-25T03:37:20.173Z,99646.00
2018-07-25T03:39:52.739Z,99643.00
2018-07-25T03:42:22.069Z,99648.00
2018-07-25T03:44:51.306Z,99647.00
2018-07-25T03:47:20.528Z,99647.00
2018-07-25T03:49:51.117Z,99645.00
2018-07-25T03:52:22.758Z,99648.00
2018-07-25T03:54:57.970Z,99649.00
2018-07-25T03:57:27.625Z,99645.00
2018-07-25T04:00:04.393Z,99644.00
2018-07-25T04:02:34.786Z,99647.00
2018-07-25T04:05:03.971Z,99648.00
2018-07-25T04:07:33.363Z,99646.00
2018-07-25T04:10:05.090Z,99651.00
2018-07-25T04:12:35.301Z,99650.00
2018-07-25T04:15:07.730Z,99654.00
2018-07-25T04:17:47.032Z,99655.00
2018-07-25T04:20:18.321Z,99663.00
2018-07-25T04:22:48.125Z,99668.00
2018-07-25T04:25:20.886Z,99661.00
2018-07-25T04:27:52.263Z,99667.00
2018-07-25T04:30:22.641Z,99670.00
2018-07-25T04:32:54.977Z,99667.00
2018-07-25T04:35:24.243Z,99668.00
2018-07-25T04:37:53.841Z,99677.00
2018-07-25T04:40:26.343Z,99672.00
2018-07-25T04:42:55.552Z,99679.00
2018-07-25T04:45:27.028Z,99681.00
2018-07-25T04:47:57.858Z,99674.00
2018-07-25T04:50:30.210Z,99681.00
2018-07-25T04:53:04.840Z,99680.00
2018-07-25T04:55:38.651Z,99678.00
2018-07-25T04:58:08.962Z,99681.00
2018-07-25T05:00:40.132Z,99680.00
2018-07-25T05:03:09.982Z,99684.00
2018-07-25T05:05:42.879Z,99690.00
2018-07-25T05:08:12.144Z,99694.00
2018-07-25T05:10:41.345Z,99696.00
2018-07-25T05:13:10.672Z,99699.00
2018-07-25T05:15:39.932Z,99705.00
2018-07-25T05:18:09.253Z,99708.00
2018-07-25T05:20:39.101Z,99715.00
2018-07-25T05:23:08.373Z,99707.00
2018-07-25T05:25:37.593Z,99709.00
2018-07-25T05:28:06.864Z,99708.00
2018-07-25T05:30:36.143Z,99705.00
2018-07-25T05:33:06.192Z,99708.00
2018-07-25T05:35:35.492Z,99716.00
2018-07-25T05:38:05.084Z,99717.00
2018-07-25T05:40:34.260Z,99722.00
2018-07-25T05:43:03.523Z,99725.00
2018-07-25T05:45:33.783Z,99724.00
2018-07-25T05:48:07.703Z,99726.00
2018-07-25T05:50:38.020Z,99723.00
2018-07-25T05:53:08.500Z,99722.00
2018-07-25T05:55:37.771Z,99721.00
2018-07-25T05:58:07.043Z,99723.00
2018-07-25T06:00:36.294Z,99724.00
2018-07-25T06:03:06.066Z,99729.00
2018-07-25T06:05:36.005Z,99729.00
2018-07-25T06:08:05.759Z,99738.00
2018-07-25T06:10:34.927Z,99732.00
2018-07-25T06:13:04.552Z,99736.00
2018-07-25T06:15:34.078Z,99736.00
2018-07-25T06:18:03.496Z,99730.00
2018-07-25T06:20:32.624Z,99733.00
2018-07-25T06:23:03.593Z,99740.00
2018-07-25T06:25:32.710Z,99746.00
2018-07-25T06:28:01.865Z,99745.00
2018-07-25T06:30:31.036Z,99750.00
2018-07-25T06:33:00.211Z,99751.00
2018-07-25T06:35:29.304Z,99750.00
2018-07-25T06:37:58.570Z,99757.00
2018-07-25T06:40:27.751Z,99754.00
2018-07-25T06:42:56.846Z,99754.00
2018-07-25T06:45:26.146Z,99756.00
2018-07-25T06:47:55.332Z,99755.00
2018-07-25T06:50:24.475Z,99763.00
2018-07-25T06:52:53.714Z,99764.00
2018-07-25T06:55:23.265Z,99763.00
2018-07-25T06:57:54.136Z,99765.00
2018-07-25T07:00:23.360Z,99767.00
2018-07-25T07:02:52.572Z,99772.00
2018-07-25T07:05:23.847Z,99776.00
2018-07-25T07:07:53.251Z,99776.00
2018-07-25T07:10:22.520Z,99771.00
2018-07-25T07:12:53.000Z,99772.00
2018-07-25T07:15:22.355Z,99778.00
2018-07-25T07:17:51.396Z,99786.00
2018-07-25T07:20:20.595Z,99787.00
2018-07-25T07:22:50.120Z,99786.00
2018-07-25T07:25:19.773Z,99785.00
2018-07-25T07:27:49.085Z,99786.00
2018-07-25T07:30:18.355Z,99784.00
2018-07-25T07:32:48.392Z,99784.00
2018-07-25T07:35:18.109Z,99784.00
2018-07-25T07:37:47.656Z,99780.00
2018-07-25T07:40:17.417Z,99784.00
2018-07-25T07:42:49.842Z,99782.00
2018-07-25T07:45:20.167Z,99784.00
2018-07-25T07:47:49.578Z,99783.00
2018-07-25T07:50:18.819Z,99782.00
2018-07-25T07:52:50.364Z,99788.00
2018-07-25T07:55:19.759Z,99787.00
2018-07-25T07:57:48.984Z,99787.00
2018-07-25T08:00:22.220Z,99794.00
2018-07-25T08:02:51.457Z,99792.00
2018-07-25T08:05:20.662Z,99787.00
2018-07-25T08:07:49.732Z,99790.00
2018-07-25T08:10:19.147Z,99796.00
2018-07-25T08:12:48.356Z,99795.00
2018-07-25T08:15:17.865Z,99798.00
2018-07-25T08:17:47.273Z,99796.00
2018-07-25T08:20:16.471Z,99798.00
2018-07-25T08:22:46.146Z,99802.00
2018-07-25T08:25:15.594Z,99801.00
2018-07-25T08:27:45.884Z,99808.00
2018-07-25T08:30:15.297Z,99803.00
2018-07-25T08:32:44.522Z,99806.00
2018-07-25T08:35:13.992Z,99800.00
2018-07-25T08:37:43.368Z,99798.00
2018-07-25T08:40:12.622Z,99798.00
2018-07-25T08:42:41.828Z,99797.00
2018-07-25T08:45:11.652Z,99793.00
2018-07-25T08:47:43.110Z,99794.00
2018-07-25T08:50:12.676Z,99796.00
2018-07-25T08:52:42.215Z,99793.00
2018-07-25T08:55:11.542Z,99799.00
2018-07-25T08:57:40.563Z,99793.00
2018-07-25T09:00:09.977Z,99798.00
2018-07-25T09:02:40.692Z,99793.00
2018-07-25T09:05:10.001Z,99800.00
2018-07-25T09:07:40.231Z,99798.00
2018-07-25T09:10:11.661Z,99795.00
2018-07-25T09:12:41.014Z,99792.00
2018-07-25T09:15:11.311Z,99792.00
2018-07-25T09:17:40.696Z,99791.00
2018-07-25T09:20:10.062Z,99797.00
2018-07-25T09:22:40.292Z,99790.00
2018-07-25T09:25:09.427Z,99788.00
2018-07-25T09:27:39.374Z,99789.00
2018-07-25T09:30:09.283Z,99796.00
2018-07-25T09:32:38.411Z,99795.00
2018-07-25T09:35:07.716Z,99798.00
2018-07-25T09:37:37.457Z,99796.00
2018-07-25T09:40:06.862Z,99795.00
2018-07-25T09:42:36.019Z,99794.00
2018-07-25T09:45:07.611Z,99785.00
2018-07-25T09:47:37.285Z,99786.00
2018-07-25T09:50:09.622Z,99781.00
2018-07-25T09:52:40.116Z,99775.00
2018-07-25T09:55:10.456Z,99781.00
2018-07-25T09:57:39.708Z,99776.00
2018-07-25T10:00:12.471Z,99777.00
2018-07-25T10:02:42.773Z,99782.00
2018-07-25T10:05:14.461Z,99776.00
2018-07-25T10:07:44.600Z,99778.00
2018-07-25T10:10:15.539Z,99778.00
2018-07-25T10:12:46.704Z,99772.00
2018-07-25T10:15:17.027Z,99768.00
2018-07-25T10:17:47.716Z,99774.00
2018-07-25T10:20:23.553Z,99771.00
2018-07-25T10:22:55.863Z,99770.00
2018-07-25T10:25:25.803Z,99769.00
2018-07-25T10:27:55.332Z,99767.00
2018-07-25T10:30:24.862Z,99765.00
2018-07-25T10:32:54.281Z,99768.00
2018-07-25T10:35:23.402Z,99764.00
2018-07-25T10:37:52.694Z,99762.00
2018-07-25T10:40:25.273Z,99762.00
2018-07-25T10:42:55.053Z,99754.00
2018-07-25T10:45:24.630Z,99760.00
2018-07-25T10:47:53.716Z,99760.00
2018-07-25T10:50:23.272Z,99758.00
2018-07-25T10:52:52.488Z,99756.00
2018-07-25T10:55:22.066Z,99752.00
2018-07-25T10:57:51.781Z,99758.00
2018-07-25T11:00:22.817Z,99753.00
2018-07-25T11:02:54.837Z,99752.00
2018-07-25T11:05:24.349Z,99747.00
2018-07-25T11:07:55.272Z,99744.00
2018-07-25T11:10:26.963Z,99744.00
2018-07-25T11:12:58.102Z,99741.00
2018-07-25T11:15:28.338Z,99739.00
2018-07-25T11:17:57.851Z,99733.00
2018-07-25T11:20:27.203Z,99735.00
2018-07-25T11:22:56.623Z,99734.00
2018-07-25T11:25:26.877Z,99739.00
2018-07-25T11:27:57.872Z,99737.00
2018-07-25T11:30:27.931Z,99739.00
2018-07-25T11:32:57.481Z,99735.00
2018-07-25T11:35:26.874Z,99737.00
2018-07-25T11:37:56.169Z,99730.00
2018-07-25T11:40:25.271Z,99735.00
2018-07-25T11:42:54.381Z,99738.00
2018-07-25T11:45:25.818Z,99730.00
2018-07-25T11:47:57.599Z,99720.00
2018-07-25T11:50:26.934Z,99720.00
2018-07-25T11:52:57.431Z,99724.00
2018-07-25T11:55:28.463Z,99716.00
2018-07-25T11:57:57.965Z,99720.00
2018-07-25T12:00:27.249Z,99716.00
2018-07-25T12:02:56.722Z,99712.00
2018-07-25T12:05:28.035Z,99712.00
2018-07-25T12:07:59.000Z,99714.00
2018-07-25T12:10:28.975Z,99708.00
2018-07-25T12:12:59.639Z,99709.00
2018-07-25T12:15:29.834Z,99709.00
2018-07-25T12:17:59.250Z,99708.00
2018-07-25T12:20:29.979Z,99704.00
2018-07-25T12:22:59.173Z,99697.00
2018-07-25T12:25:28.352Z,99699.00
2018-07-25T12:27:57.783Z,99695.00
2018-07-25T12:30:27.487Z,99698.00
2018-07-25T12:32:58.014Z,99704.00
2018-07-25T12:35:28.209Z,99699.00
2018-07-25T12:37:57.662Z,99705.00
2018-07-25T12:40:30.187Z,99701.00
2018-07-25T12:43:01.995Z,99695.00
2018-07-25T12:45:31.894Z,99694.00
2018-07-25T12:48:01.772Z,99692.00
2018-07-25T12:50:31.845Z,99690.00
2018-07-25T12:53:03.951Z,99689.00
2018-07-25T12:55:33.725Z,99686.00
2018-07-25T12:58:03.701Z,99678.00
2018-07-25T13:00:35.406Z,99681.00
2018-07-25T13:03:05.052Z,99677.00
2018-07-25T13:05:34.531Z,99670.00
2018-07-25T13:08:04.183Z,99669.00
2018-07-25T13:10:33.663Z,99662.00
2018-07-25T13:13:02.919Z,99664.00
2018-07-25T13:15:35.407Z,99661.00
2018-07-25T13:18:04.892Z,99657.00
2018-07-25T13:20:36.384Z,99664.00
2018-07-25T13:23:12.662Z,99656.00
2018-07-25T13:25:44.095Z,99661.00
2018-07-25T13:28:13.775Z,99663.00
2018-07-25T13:30:44.411Z,99661.00
2018-07-25T13:33:14.622Z,99660.00
2018-07-25T13:35:45.606Z,99658.00
2018-07-25T13:38:15.480Z,99650.00
2018-07-25T13:40:47.349Z,99655.00
2018-07-25T13:43:16.711Z,99654.00
2018-07-25T13:45:45.886Z,99649.00
2018-07-25T13:48:15.173Z,99654.00
2018-07-25T13:50:45.501Z,99655.00
2018-07-25T13:53:14.744Z,99650.00
2018-07-25T13:55:43.968Z,99645.00
2018-07-25T13:58:13.254Z,99636.00
2018-07-25T14:00:42.678Z,99638.00
2018-07-25T14:03:11.974Z,99640.00
2018-07-25T14:05:41.329Z,99637.00
2018-07-25T14:08:10.443Z,99641.00
2018-07-25T14:10:39.997Z,99637.00
2018-07-25T14:13:09.896Z,99632.00
2018-07-25T14:15:39.264Z,99629.00
2018-07-25T14:18:09.056Z,99627.00
2018-07-25T14:20:38.016Z,99629.00
2018-07-25T14:23:07.223Z,99624.00
2018-07-25T14:25:36.290Z,99617.00
2018-07-25T14:28:05.585Z,99622.00
2018-07-25T14:30:34.844Z,99616.00
2018-07-25T14:33:04.026Z,99618.00
2018-07-25T14:35:33.688Z,99613.00
2018-07-25T14:38:03.456Z,99616.00
2018-07-25T14:40:34.736Z,99613.00
2018-07-25T14:43:04.150Z,99609.00
2018-07-25T14:45:33.365Z,99601.00
2018-07-25T14:48:02.581Z,99600.00
2018-07-25T14:50:31.979Z,99606.00
2018-07-25T14:53:01.210Z,99599.00
2018-07-25T14:55:30.467Z,99601.00
2018-07-25T14:58:02.598Z,99604.00
2018-07-25T15:00:31.984Z,99612.00
2018-07-25T15:03:01.453Z,99599.00
2018-07-25T15:05:30.708Z,99597.00
2018-07-25T15:08:02.350Z,99599.00
2018-07-25T15:10:31.722Z,99593.00
2018-07-25T15:13:01.769Z,99597.00
2018-07-25T15:15:31.620Z,99598.00
2018-07-25T15:18:01.173Z,99595.00
2018-07-25T15:20:31.110Z,99591.00
2018-07-25T15:23:01.662Z,99588.00
2018-07-25T15:25:33.356Z,99585.00
2018-07-25T15:28:04.029Z,99584.00
2018-07-25T15:30:36.043Z,99587.00
2018-07-25T15:33:05.574Z,99576.00
2018-07-25T15:35:34.842Z,99576.00
2018-07-25T15:38:03.977Z,99582.00
2018-07-25T15:40:34.537Z,99579.00
2018-07-25T15:43:03.812Z,99573.00
2018-07-25T15:45:40.058Z,99575.00
2018-07-25T15:48:09.720Z,99570.00
2018-07-25T15:50:39.074Z,99569.00
2018-07-25T15:53:08.527Z,99573.00
2018-07-25T15:55:39.030Z,99570.00
2018-07-25T15:58:08.856Z,99567.00
2018-07-25T16:00:38.942Z,99565.00
2018-07-25T16:03:08.267Z,99567.00
2018-07-25T16:05:38.058Z,99565.00
2018-07-25T16:08:07.531Z,99567.00
2018-07-25T16:10:36.863Z,99560.00
2018-07-25T16:13:06.604Z,99566.00
2018-07-25T16:15:36.065Z,99562.00
2018-07-25T16:18:05.434Z,99566.00
2018-07-25T16:20:37.216Z,99560.00
2018-07-25T16:23:06.645Z,99559.00
2018-07-25T16:25:35.884Z,99555.00
2018-07-25T16:28:06.419Z,99558.00
2018-07-25T16:30:35.766Z,99556.00
2018-07-25T16:33:05.176Z,99554.00
2018-07-25T16:35:48.826Z,99552.00
2018-07-25T16:38:18.370Z,99553.00
2018-07-25T16:40:48.200Z,99545.00
2018-07-25T16:43:18.360Z,99544.00
2018-07-25T16:45:48.626Z,99538.00
2018-07-25T16:48:18.361Z,99544.00
2018-07-25T16:50:48.081Z,99546.00
2018-07-25T16:53:19.377Z,99554.00
2018-07-25T16:55:49.671Z,99561.00
2018-07-25T16:58:20.660Z,99563.00
2018-07-25T17:00:50.233Z,99564.00
2018-07-25T17:03:19.357Z,99561.00
2018-07-25T17:05:48.417Z,99564.00
2018-07-25T17:08:18.011Z,99568.00
2018-07-25T17:10:47.268Z,99567.00
2018-07-25T17:13:18.223Z,99567.00
2018-07-25T17:15:47.420Z,99564.00
2018-07-25T17:18:19.688Z,99573.00
2018-07-25T17:20:54.715Z,99570.00
2018-07-25T17:23:26.990Z,99571.00
2018-07-25T17:25:58.517Z,99569.00
2018-07-25T17:28:27.616Z,99568.00
2018-07-25T17:30:57.242Z,99577.00
2018-07-25T17:33:28.903Z,99579.00
2018-07-25T17:36:01.712Z,99579.00
2018-07-25T17:38:33.128Z,99581.00
2018-07-25T17:41:04.390Z,99587.00
2018-07-25T17:43:33.549Z,99592.00
2018-07-25T17:46:05.900Z,99591.00
2018-07-25T17:48:35.321Z,99593.00
2018-07-25T17:51:07.565Z,99593.00
2018-07-25T17:53:38.389Z,99594.00
2018-07-25T17:56:08.237Z,99591.00
2018-07-25T17:58:39.211Z,99596.00
2018-07-25T18:01:09.425Z,99596.00
2018-07-25T18:03:39.808Z,99593.00
2018-07-25T18:06:10.620Z,99597.00
2018-07-25T18:08:40.207Z,99602.00
2018-07-25T18:11:12.019Z,99605.00
2018-07-25T18:14:49.852Z,99609.00
2018-07-25T18:17:21.432Z,99608.00
2018-07-25T18:19:57.683Z,99608.00
2018-07-25T18:22:36.797Z,99610.00
2018-07-25T18:28:38.535Z,99606.00
2018-07-25T18:31:07.705Z,99618.00
2018-07-25T18:33:38.850Z,99617.00
2018-07-25T18:36:08.288Z,99624.00
2018-07-25T18:38:37.432Z,99636.00
2018-07-25T18:41:08.292Z,99634.00
2018-07-25T18:43:39.828Z,99635.00
2018-07-25T18:46:09.834Z,99641.00
2018-07-25T18:48:41.789Z,99652.00
2018-07-25T18:51:17.035Z,99662.00
2018-07-25T18:53:48.972Z,99664.00
2018-07-25T18:56:18.959Z,99663.00
2018-07-25T18:58:48.060Z,99670.00
2018-07-25T19:01:19.208Z,99671.00
2018-07-25T19:03:53.981Z,99674.00
2018-07-25T19:06:25.603Z,99682.00
2018-07-25T19:08:54.657Z,99689.00
2018-07-25T19:11:24.232Z,99691.00
2018-07-25T19:13:58.521Z,99695.00
2018-07-25T19:16:28.928Z,99700.00
2018-07-25T19:19:01.380Z,99698.00
2018-07-25T19:21:32.521Z,99698.00
2018-07-25T19:24:02.136Z,99703.00
2018-07-25T19:26:38.989Z,99704.00
2018-07-25T19:29:09.434Z,99712.00
2018-07-25T19:31:40.808Z,99714.00
2018-07-25T19:34:13.747Z,99711.00
2018-07-25T19:36:45.866Z,99710.00
2018-07-25T19:39:16.898Z,99714.00
2018-07-25T19:41:46.760Z,99716.00
2018-07-25T19:44:18.263Z,99716.00
2018-07-25T19:46:50.364Z,99713.00
2018-07-25T19:49:19.448Z,99715.00
2018-07-25T19:51:54.272Z,99716.00
2018-07-25T19:54:23.667Z,99707.00
2018-07-25T19:56:56.076Z,99718.00
2018-07-25T19:59:26.006Z,99717.00
2018-07-25T20:01:55.913Z,99725.00
2018-07-25T20:04:25.000Z,99731.00
2018-07-25T20:06:57.579Z,99734.00
2018-07-25T20:09:28.504Z,99738.00
2018-07-25T20:11:59.056Z,99733.00
2018-07-25T20:14:33.650Z,99730.00
2018-07-25T20:17:04.172Z,99726.00
2018-07-25T20:19:36.723Z,99722.00
2018-07-25T20:22:07.901Z,99717.00
2018-07-25T20:24:41.002Z,99711.00
2018-07-25T20:27:10.130Z,99700.00
2018-07-25T20:29:43.329Z,99699.00
2018-07-25T20:32:16.510Z,99696.00
2018-07-25T20:34:46.246Z,99697.00
2018-07-25T20:37:18.233Z,99701.00
2018-07-25T20:39:50.660Z,99701.00
2018-07-25T20:42:23.691Z,99703.00
2018-07-25T20:45:03.637Z,99706.00
2018-07-25T20:47:34.505Z,99708.00
2018-07-25T20:50:05.663Z,99714.00
2018-07-25T20:52:35.949Z,99732.00
2018-07-25T20:55:09.718Z,99737.00
2018-07-25T20:57:38.762Z,99736.00
2018-07-25T21:00:07.811Z,99735.00
2018-07-25T21:02:37.703Z,99740.00
2018-07-25T21:05:27.274Z,99740.00
2018-07-25T21:07:56.768Z,99748.00
2018-07-25T21:10:27.315Z,99753.00
2018-07-25T21:12:58.453Z,99762.00
2018-07-25T21:15:27.663Z,99768.00
2018-07-25T21:17:57.430Z,99757.00
2018-07-25T21:20:26.532Z,99754.00
2018-07-25T21:22:55.996Z,99751.00
2018-07-25T21:25:26.298Z,99748.00
2018-07-25T21:27:55.542Z,99748.00
2018-07-25T21:30:27.193Z,99753.00
2018-07-25T21:33:01.066Z,99747.00
2018-07-25T21:35:33.536Z,99746.00
2018-07-25T21:38:04.843Z,99746.00
2018-07-25T21:40:35.056Z,99748.00
2018-07-25T21:43:04.948Z,99747.00
2018-07-25T21:45:36.995Z,99748.00
2018-07-25T21:48:09.536Z,99747.00
2018-07-25T21:50:42.385Z,99752.00
2018-07-25T21:53:12.484Z,99747.00
2018-07-25T21:55:43.249Z,99747.00
2018-07-25T21:58:13.053Z,99746.00
2018-07-25T22:00:48.558Z,99746.00
2018-07-25T22:03:18.861Z,99746.00
2018-07-25T22:05:49.504Z,99745.00
2018-07-25T22:08:19.379Z,99742.00
2018-07-25T22:10:50.138Z,99747.00
2018-07-25T22:13:20.435Z,99747.00
2018-07-25T22:15:50.595Z,99750.00
2018-07-25T22:18:20.529Z,99753.00
2018-07-25T22:20:50.980Z,99746.00
2018-07-25T22:23:20.688Z,99744.00
2018-07-25T22:25:50.472Z,99736.00
2018-07-25T22:28:20.038Z,99741.00
2018-07-25T22:30:49.391Z,99737.00
2018-07-25T22:33:19.889Z,99735.00
2018-07-25T22:35:52.146Z,99731.00
2018-07-25T22:38:22.076Z,99733.00
2018-07-25T22:40:51.811Z,99729.00
2018-07-25T22:43:21.330Z,99729.00
2018-07-25T22:45:53.343Z,99731.00
2018-07-25T22:48:23.236Z,99733.00
2018-07-25T22:50:55.857Z,99728.00
2018-07-25T22:53:25.599Z,99727.00
2018-07-25T22:55:54.924Z,99733.00
2018-07-25T22:58:24.409Z,99726.00
2018-07-25T23:00:54.068Z,99731.00
2018-07-25T23:03:23.643Z,99725.00
2018-07-25T23:05:53.488Z,99716.00
2018-07-25T23:08:23.822Z,99724.00
2018-07-25T23:10:53.336Z,99729.00
2018-07-25T23:13:22.837Z,99721.00
2018-07-25T23:15:53.072Z,99723.00
2018-07-25T23:18:22.823Z,99724.00
2018-07-25T23:20:52.484Z,99724.00
2018-07-25T23:23:22.901Z,99728.00
2018-07-25T23:25:55.089Z,99732.00
2018-07-25T23:28:27.548Z,99730.00
2018-07-25T23:31:01.092Z,99724.00
2018-07-25T23:33:31.421Z,99724.00
2018-07-25T23:36:00.766Z,99723.00
2018-07-25T23:38:30.862Z,99721.00
2018-07-25T23:41:00.066Z,99721.00
2018-07-25T23:43:29.851Z,99719.00
2018-07-25T23:46:00.173Z,99720.00
2018-07-25T23:48:29.501Z,99722.00
2018-07-25T23:51:00.087Z,99719.00
2018-07-25T23:53:29.698Z,99722.00
2018-07-25T23:56:00.934Z,99720.00
2018-07-25T23:58:30.356Z,99722.00
